Terminal Aerodrome Forecast
Issued by NWS Shreveport, LA

Home | Current Version | Previous Version | Text Only | Print | Product List | Glossary On
Versions: 1 2 3 4 5 6 7 8 9 10 11 12 13 14 15 16 17 18 19
000
FTUS44 KSHV 260520
TAFTYR
TAF
KTYR 260520Z 2606/2706 16008KT P6SM BKN040
     FM260800 16008KT P6SM OVC015
     FM261600 16013G22KT P6SM BKN035
     FM262100 17014KT P6SM VCTS BKN050CB
     FM270000 16013KT P6SM BKN100=

USA.gov is the U.S. government's official web portal to all federal, state and local government web resources and services.